createdAt,value
2022-11-25T00:01:32.854Z,82.90
2022-11-25T00:05:44.652Z,83.55
2022-11-25T00:09:56.152Z,83.45
2022-11-25T00:14:11.822Z,84.04
2022-11-25T00:18:23.417Z,84.51
2022-11-25T00:22:34.956Z,84.45
2022-11-25T00:26:46.593Z,84.69
2022-11-25T00:31:05.016Z,84.95
2022-11-25T00:35:16.605Z,85.04
2022-11-25T00:39:28.848Z,85.64
2022-11-25T00:43:59.019Z,85.67
2022-11-25T00:48:10.583Z,86.20
2022-11-25T00:52:26.929Z,86.46
2022-11-25T00:56:38.645Z,86.79
2022-11-25T01:00:50.343Z,86.98
2022-11-25T01:05:01.991Z,87.14
2022-11-25T01:09:13.783Z,87.43
2022-11-25T01:13:25.366Z,88.18
2022-11-25T01:17:36.912Z,88.37
2022-11-25T01:21:48.642Z,88.80
2022-11-25T01:26:09.026Z,89.04
2022-11-25T01:30:20.579Z,88.94
2022-11-25T01:34:34.591Z,89.37
2022-11-25T01:38:51.164Z,89.56
2022-11-25T01:43:02.836Z,89.37
2022-11-25T01:47:24.426Z,89.61
2022-11-25T01:52:00.947Z,89.87
2022-11-25T01:56:12.673Z,89.39
2022-11-25T02:00:25.609Z,89.90
2022-11-25T02:04:39.506Z,89.92
2022-11-25T02:08:55.217Z,89.91
2022-11-25T02:13:06.847Z,90.07
2022-11-25T02:17:21.332Z,90.14
2022-11-25T02:21:45.343Z,90.17
2022-11-25T02:25:57.894Z,90.35
2022-11-25T02:30:09.881Z,90.40
2022-11-25T02:34:21.439Z,90.54
2022-11-25T02:38:54.894Z,90.61
2022-11-25T02:43:08.904Z,90.58
2022-11-25T02:47:20.464Z,90.79
2022-11-25T02:51:32.496Z,90.81
2022-11-25T02:55:44.071Z,91.16
2022-11-25T02:59:56.644Z,90.95
2022-11-25T03:04:08.274Z,91.13
2022-11-25T03:08:20.387Z,91.31
2022-11-25T03:12:33.226Z,91.57
2022-11-25T03:16:45.093Z,91.46
2022-11-25T03:20:57.164Z,91.56
2022-11-25T03:25:11.920Z,91.52
2022-11-25T03:29:23.516Z,91.70
2022-11-25T03:33:35.130Z,91.55
2022-11-25T03:37:46.965Z,91.67
2022-11-25T03:41:58.866Z,91.48
2022-11-25T03:46:10.455Z,91.82
2022-11-25T03:50:22.298Z,91.55
2022-11-25T03:54:34.107Z,91.90
2022-11-25T03:58:58.737Z,91.75
2022-11-25T04:03:10.299Z,92.26
2022-11-25T04:07:24.085Z,92.33
2022-11-25T04:11:54.405Z,92.20
2022-11-25T04:16:06.080Z,91.84
2022-11-25T04:20:17.638Z,92.19
2022-11-25T04:24:35.768Z,92.34
2022-11-25T04:28:48.864Z,92.27
2022-11-25T04:33:01.476Z,92.71
2022-11-25T04:37:13.342Z,92.59
2022-11-25T04:41:25.898Z,92.94
2022-11-25T04:46:06.251Z,93.09
2022-11-25T04:50:14.196Z,92.82
2022-11-25T04:54:35.728Z,92.80
2022-11-25T04:59:06.265Z,93.09
2022-11-25T05:03:21.245Z,93.31
2022-11-25T05:07:32.903Z,93.12
2022-11-25T05:11:44.425Z,93.02
2022-11-25T05:15:59.964Z,93.27
2022-11-25T05:20:11.968Z,93.21
2022-11-25T05:24:24.874Z,93.59
2022-11-25T05:28:37.395Z,93.51
2022-11-25T05:32:48.906Z,93.64
2022-11-25T05:37:00.991Z,93.76
2022-11-25T05:41:14.028Z,94.20
2022-11-25T05:45:28.863Z,93.58
2022-11-25T05:49:41.349Z,93.82
2022-11-25T05:53:53.040Z,93.90
2022-11-25T05:58:06.951Z,93.87
2022-11-25T06:02:19.695Z,93.78
2022-11-25T06:06:32.099Z,93.85
2022-11-25T06:10:44.121Z,93.75
2022-11-25T06:14:55.984Z,93.39
2022-11-25T06:19:07.535Z,93.56
2022-11-25T06:23:19.538Z,93.82
2022-11-25T06:27:49.981Z,93.45
2022-11-25T06:32:03.469Z,93.65
2022-11-25T06:36:32.319Z,93.59
2022-11-25T06:40:43.743Z,93.71
2022-11-25T06:44:55.299Z,93.21
2022-11-25T06:49:07.317Z,92.84
2022-11-25T06:53:23.857Z,92.71
2022-11-25T06:57:35.638Z,92.36
2022-11-25T07:01:47.625Z,92.41
2022-11-25T07:05:59.887Z,92.46
2022-11-25T07:10:11.487Z,92.76
2022-11-25T07:14:23.278Z,92.72
2022-11-25T07:18:36.641Z,92.77
2022-11-25T07:22:48.059Z,92.79
2022-11-25T07:26:59.542Z,92.94
2022-11-25T07:31:28.704Z,92.80
2022-11-25T07:35:43.470Z,92.61
2022-11-25T07:39:54.884Z,92.61
2022-11-25T07:44:08.773Z,92.78
2022-11-25T07:48:28.988Z,92.80
2022-11-25T07:52:40.856Z,92.99
2022-11-25T07:56:52.599Z,93.08
2022-11-25T08:01:05.848Z,93.11
2022-11-25T08:05:17.362Z,93.50
2022-11-25T08:09:28.819Z,93.56
2022-11-25T08:13:40.460Z,93.83
2022-11-25T08:17:52.729Z,93.59
2022-11-25T08:22:04.547Z,93.93
2022-11-25T08:26:30.078Z,93.47
2022-11-25T08:30:41.596Z,93.80
2022-11-25T08:34:53.049Z,93.77
2022-11-25T08:39:28.881Z,93.94
2022-11-25T08:43:38.931Z,94.09
2022-11-25T08:47:50.428Z,94.15
2022-11-25T08:52:01.908Z,94.54
2022-11-25T08:56:14.133Z,94.40
2022-11-25T09:00:25.656Z,94.50
2022-11-25T09:04:37.075Z,94.11
2022-11-25T09:08:48.643Z,92.22
2022-11-25T09:13:00.306Z,86.58
2022-11-25T09:17:12.708Z,82.38
2022-11-25T09:21:24.810Z,82.85
2022-11-25T09:25:36.671Z,82.13
2022-11-25T09:29:48.147Z,80.56
2022-11-25T09:33:59.731Z,79.63
2022-11-25T09:38:11.324Z,79.66
2022-11-25T09:42:53.773Z,80.00
2022-11-25T09:47:34.716Z,76.92
2022-11-25T09:51:55.417Z,74.95
2022-11-25T09:56:17.803Z,73.93
2022-11-25T10:00:38.669Z,73.57
2022-11-25T10:05:06.236Z,71.76
2022-11-25T10:09:22.442Z,70.82
2022-11-25T10:13:45.672Z,69.83
2022-11-25T10:18:06.304Z,70.16
2022-11-25T10:22:26.959Z,70.39
2022-11-25T10:26:55.828Z,70.92
2022-11-25T10:31:07.416Z,70.84
2022-11-25T10:35:48.326Z,71.00
2022-11-25T10:39:59.982Z,71.04
2022-11-25T10:44:26.595Z,70.89
2022-11-25T10:48:53.170Z,71.04
2022-11-25T10:53:22.535Z,71.00
2022-11-25T10:57:34.066Z,70.46
2022-11-25T11:01:45.655Z,71.37
2022-11-25T11:05:57.272Z,71.33
2022-11-25T11:10:15.236Z,71.75
2022-11-25T11:14:29.949Z,71.57
2022-11-25T11:18:41.824Z,71.26
2022-11-25T11:23:14.105Z,71.17
2022-11-25T11:27:26.497Z,70.02
2022-11-25T11:31:40.903Z,70.17
2022-11-25T11:36:04.785Z,70.32
2022-11-25T11:40:25.861Z,70.05
2022-11-25T11:44:59.001Z,69.55
2022-11-25T11:49:26.281Z,69.59
2022-11-25T11:53:57.514Z,69.01
2022-11-25T11:58:19.627Z,68.87
2022-11-25T12:02:59.162Z,69.40
2022-11-25T12:07:32.672Z,69.90
2022-11-25T12:11:49.656Z,70.05
2022-11-25T12:16:10.480Z,70.32
2022-11-25T12:20:55.866Z,70.32
2022-11-25T12:25:19.186Z,70.24
2022-11-25T12:29:43.899Z,70.53
2022-11-25T12:34:21.597Z,70.51
2022-11-25T12:38:57.098Z,70.55
2022-11-25T12:43:39.548Z,70.79
2022-11-25T12:47:52.583Z,70.88
2022-11-25T12:52:42.234Z,71.25
2022-11-25T12:57:17.993Z,71.77
2022-11-25T13:01:34.314Z,71.79
2022-11-25T13:05:58.056Z,72.29
2022-11-25T13:10:38.461Z,72.30
2022-11-25T13:15:09.084Z,71.97
2022-11-25T13:19:20.896Z,72.24
2022-11-25T13:23:49.109Z,72.39
2022-11-25T13:28:05.506Z,72.17
2022-11-25T13:32:38.232Z,72.71
2022-11-25T13:36:52.054Z,72.79
2022-11-25T13:41:15.960Z,72.99
2022-11-25T13:45:32.627Z,73.25
2022-11-25T13:49:51.769Z,73.45
2022-11-25T13:54:07.335Z,73.82
2022-11-25T13:58:29.359Z,74.49
2022-11-25T14:02:45.425Z,75.03
2022-11-25T14:07:17.145Z,75.37
2022-11-25T14:11:53.267Z,75.72
2022-11-25T14:16:19.846Z,76.10
2022-11-25T14:20:55.981Z,76.36
2022-11-25T14:25:16.192Z,76.59
2022-11-25T14:29:43.836Z,77.27
2022-11-25T14:34:03.540Z,77.16
2022-11-25T14:38:22.329Z,77.60
2022-11-25T14:42:41.453Z,78.35
2022-11-25T14:46:58.741Z,78.87
2022-11-25T14:51:13.795Z,78.82
2022-11-25T14:55:30.128Z,79.36
2022-11-25T14:59:45.421Z,79.98
2022-11-25T15:04:17.704Z,80.13
2022-11-25T15:08:39.156Z,79.77
2022-11-25T15:12:53.699Z,80.63
2022-11-25T15:17:17.892Z,80.53
2022-11-25T15:21:33.801Z,81.02
2022-11-25T15:25:52.977Z,80.80
2022-11-25T15:30:54.413Z,80.95
2022-11-25T15:35:14.198Z,80.96
2022-11-25T15:39:27.664Z,82.13
2022-11-25T15:43:42.060Z,82.67
2022-11-25T15:47:53.713Z,82.63
2022-11-25T15:52:15.105Z,82.58
2022-11-25T15:56:27.764Z,82.92
2022-11-25T16:00:41.848Z,83.23
2022-11-25T16:05:23.257Z,83.91
2022-11-25T16:09:35.211Z,83.97
2022-11-25T16:13:48.629Z,84.55
2022-11-25T16:18:24.560Z,84.59
2022-11-25T16:22:31.895Z,84.69
2022-11-25T16:26:56.519Z,85.11
2022-11-25T16:31:16.221Z,85.32
2022-11-25T16:35:27.808Z,85.34
2022-11-25T16:39:39.682Z,85.18
2022-11-25T16:43:51.777Z,85.70
2022-11-25T16:48:16.144Z,85.94
2022-11-25T16:52:27.711Z,86.09
2022-11-25T16:56:41.818Z,85.95
2022-11-25T17:00:56.406Z,85.91
2022-11-25T17:05:20.462Z,85.56
2022-11-25T17:09:32.478Z,85.22
2022-11-25T17:13:49.014Z,85.30
2022-11-25T17:18:03.141Z,85.04
2022-11-25T17:22:21.088Z,85.52
2022-11-25T17:26:38.195Z,85.66
2022-11-25T17:30:49.837Z,86.20
2022-11-25T17:35:01.472Z,86.45
2022-11-25T17:39:14.639Z,86.56
2022-11-25T17:43:30.378Z,87.06
2022-11-25T17:47:45.307Z,87.57
2022-11-25T17:51:56.942Z,87.62
2022-11-25T17:56:25.876Z,87.55
2022-11-25T18:00:39.723Z,87.99
2022-11-25T18:04:51.328Z,88.17
2022-11-25T18:09:02.861Z,88.08
2022-11-25T18:13:16.582Z,88.11
2022-11-25T18:17:28.203Z,88.29
2022-11-25T18:21:40.799Z,88.50
2022-11-25T18:25:54.438Z,88.61
2022-11-25T18:30:08.104Z,88.49
2022-11-25T18:34:19.845Z,88.63
2022-11-25T18:38:31.441Z,88.58
2022-11-25T18:42:45.054Z,88.44
2022-11-25T18:46:56.771Z,88.59
2022-11-25T18:51:12.234Z,88.70
2022-11-25T18:55:24.202Z,88.90
2022-11-25T18:59:37.287Z,88.81
2022-11-25T19:03:49.943Z,88.92
2022-11-25T19:08:02.796Z,89.13
2022-11-25T19:12:18.751Z,89.33
2022-11-25T19:16:30.827Z,89.25
2022-11-25T19:20:42.603Z,89.13
2022-11-25T19:24:54.167Z,88.88
2022-11-25T19:29:08.864Z,88.96
2022-11-25T19:33:34.596Z,88.76
2022-11-25T19:37:46.176Z,88.42
2022-11-25T19:41:57.744Z,88.74
2022-11-25T19:46:46.439Z,88.46
2022-11-25T19:51:04.735Z,88.41
2022-11-25T19:55:23.431Z,88.64
2022-11-25T19:59:35.019Z,88.57
2022-11-25T20:03:49.651Z,88.97
2022-11-25T20:08:01.418Z,88.88
2022-11-25T20:12:33.386Z,88.53
2022-11-25T20:16:45.099Z,88.73
2022-11-25T20:21:05.676Z,88.53
2022-11-25T20:25:18.189Z,88.04
2022-11-25T20:29:30.786Z,88.13
2022-11-25T20:33:42.416Z,87.98
2022-11-25T20:37:54.450Z,88.17
2022-11-25T20:42:06.503Z,88.10
2022-11-25T20:46:23.976Z,88.49
2022-11-25T20:50:35.517Z,88.56
2022-11-25T20:54:47.374Z,88.39
2022-11-25T20:58:58.965Z,88.43
2022-11-25T21:03:10.584Z,88.46
2022-11-25T21:07:22.271Z,88.43
2022-11-25T21:11:34.013Z,88.42
2022-11-25T21:15:46.122Z,88.51
2022-11-25T21:19:57.675Z,88.75
2022-11-25T21:24:32.170Z,88.72
2022-11-25T21:28:46.644Z,88.47
2022-11-25T21:33:01.092Z,88.99
2022-11-25T21:37:12.753Z,88.95
2022-11-25T21:41:24.381Z,89.07
2022-11-25T21:45:35.948Z,88.97
2022-11-25T21:49:48.020Z,89.27
2022-11-25T21:53:59.661Z,89.73
2022-11-25T21:58:29.473Z,89.69
2022-11-25T22:02:41.039Z,89.50
2022-11-25T22:06:52.689Z,89.27
2022-11-25T22:11:05.571Z,89.51
2022-11-25T22:15:20.994Z,89.56
2022-11-25T22:19:33.294Z,89.46
2022-11-25T22:23:44.884Z,89.29
2022-11-25T22:27:56.673Z,89.28
2022-11-25T22:32:13.208Z,89.33
2022-11-25T22:36:37.408Z,89.15
2022-11-25T22:40:53.802Z,89.25
2022-11-25T22:45:07.819Z,89.75
2022-11-25T22:49:29.028Z,89.50
2022-11-25T22:53:40.592Z,89.34
2022-11-25T22:57:54.364Z,89.55
2022-11-25T23:02:06.415Z,89.27
2022-11-25T23:06:18.023Z,89.63
2022-11-25T23:10:31.493Z,89.78
2022-11-25T23:14:44.204Z,89.52
2022-11-25T23:18:55.950Z,89.21
2022-11-25T23:23:15.127Z,89.61
2022-11-25T23:27:26.666Z,89.28
2022-11-25T23:32:05.429Z,89.41
2022-11-25T23:36:25.850Z,89.13
2022-11-25T23:40:37.451Z,88.89
2022-11-25T23:44:49.072Z,89.29
2022-11-25T23:49:03.071Z,89.44
2022-11-25T23:53:27.824Z,89.41
2022-11-25T23:57:39.361Z,89.50
